Time;durP1;ratioP1;P1;durP2;ratioP2;P2;SDS_P1;SDS_P2;PMS_P1;PMS_P2;Temp;Humidity;BMP_temperature;BMP_pressure;BME280_temperature;BME280_humidity;BME280_pressure;Samples;Min_cycle;Max_cycle;Signal;HPM_P1;HPM_P2
2022/12/03 00:05:01;;;;;;;57.93;20.08;;;;;;;5.28;90.27;99936.89;4247378;82;28530;-84
2022/12/03 00:11:02;;;;;;;53.73;20.40;;;;;;;5.24;90.07;99939.55;4262628;82;28538;-84
2022/12/03 00:17:04;;;;;;;58.30;19.50;;;;;;;4.76;92.80;99933.42;4229863;82;28505;-84
2022/12/03 00:23:05;;;;;;;52.43;19.70;;;;;;;5.34;90.47;99943.84;4265403;82;28549;-85
2022/12/03 00:29:07;;;;;;;54.55;19.98;;;;;;;5.35;89.64;99950.35;4253086;82;28512;-85
2022/12/03 00:35:08;;;;;;;54.20;19.37;;;;;;;5.16;90.41;99952.95;4242485;81;28580;-83
2022/12/03 00:41:10;;;;;;;57.23;19.92;;;;;;;5.14;90.53;99954.44;4240907;82;28543;-81
2022/12/03 00:47:13;;;;;;;51.88;17.90;;;;;;;5.74;86.93;99941.95;4247683;82;28535;-82
2022/12/03 00:53:17;;;;;;;50.52;20.02;;;;;;;4.93;90.85;99952.86;4241951;82;28503;-78
2022/12/03 00:59:18;;;;;;;64.10;21.37;;;;;;;5.77;87.57;99950.92;4262498;81;28522;-78
2022/12/03 01:05:20;;;;;;;64.07;19.73;;;;;;;5.76;87.23;99946.60;4234570;82;28555;-79
2022/12/03 01:11:37;;;;;;;68.02;21.65;;;;;;;4.99;89.64;99949.00;4234285;82;28554;-80
2022/12/03 01:17:38;;;;;;;58.02;20.08;;;;;;;5.14;91.75;99933.12;4229437;82;28526;-80
2022/12/03 01:23:39;;;;;;;63.28;20.68;;;;;;;4.89;93.41;99935.05;4237250;82;28523;-77
2022/12/03 01:29:41;;;;;;;63.52;20.40;;;;;;;5.30;91.14;99928.20;4224335;82;28633;-81
2022/12/03 01:35:42;;;;;;;75.83;22.95;;;;;;;5.83;87.33;99916.87;4239086;82;28582;-81
2022/12/03 01:41:44;;;;;;;60.52;19.62;;;;;;;5.04;91.90;99916.50;4254147;82;28562;-79
2022/12/03 01:47:45;;;;;;;63.17;21.17;;;;;;;5.31;90.96;99917.05;4280412;82;28533;-81
2022/12/03 01:53:47;;;;;;;65.30;20.52;;;;;;;5.38;89.06;99936.66;4318617;82;28535;-78
2022/12/03 01:59:49;;;;;;;63.80;21.27;;;;;;;5.55;89.21;99929.39;4262437;82;28524;-81
2022/12/03 02:05:51;;;;;;;61.35;21.42;;;;;;;5.51;89.72;99924.09;4243916;82;28541;-81
2022/12/03 02:11:53;;;;;;;60.63;20.23;;;;;;;5.35;91.27;99920.17;4232743;82;28583;-81
2022/12/03 02:17:55;;;;;;;73.50;21.27;;;;;;;5.66;89.32;99925.50;4240029;82;28517;-80
2022/12/03 02:24:17;;;;;;;64.27;20.95;;;;;;;6.05;86.85;99929.60;4229788;82;28617;-81
2022/12/03 02:30:22;;;;;;;64.45;20.27;;;;;;;6.21;84.84;99925.44;4249239;82;28469;-80
2022/12/03 02:36:24;;;;;;;76.90;22.75;;;;;;;5.66;88.22;99921.98;4267309;81;28726;-81
2022/12/03 02:42:34;;;;;;;75.15;23.07;;;;;;;5.27;91.15;99921.89;4216705;82;28536;-81
2022/12/03 02:48:38;;;;;;;73.02;22.90;;;;;;;4.96;95.05;99936.03;4249894;82;28497;-81
2022/12/03 02:54:40;;;;;;;74.95;22.40;;;;;;;4.99;95.30;99934.83;4283902;82;28619;-82
2022/12/03 03:00:43;;;;;;;80.62;23.55;;;;;;;5.31;93.36;99937.05;4269450;82;28628;-81
2022/12/03 03:06:44;;;;;;;72.65;21.12;;;;;;;5.07;95.52;99931.32;4214583;82;28535;-81
2022/12/03 03:12:45;;;;;;;75.28;21.68;;;;;;;4.80;95.24;99926.25;4226046;82;28487;-81
2022/12/03 03:18:47;;;;;;;69.17;21.97;;;;;;;4.79;96.47;99923.27;4253059;82;28550;-80
2022/12/03 03:24:49;;;;;;;74.22;19.95;;;;;;;4.90;96.15;99919.38;4241840;82;28493;-79
2022/12/03 03:30:51;;;;;;;67.30;21.12;;;;;;;5.54;92.35;99918.39;4256533;82;28505;-79
2022/12/03 03:36:53;;;;;;;69.35;19.82;;;;;;;5.41;93.28;99914.15;4273826;82;28543;-79
2022/12/03 03:42:55;;;;;;;67.78;20.82;;;;;;;5.51;92.35;99915.24;4233710;82;28517;-80
2022/12/03 03:48:57;;;;;;;70.60;22.22;;;;;;;4.63;94.99;99912.13;4221136;82;28550;-78
2022/12/03 03:54:58;;;;;;;68.95;21.33;;;;;;;4.62;97.40;99914.45;4226017;82;28502;-78
2022/12/03 04:01:00;;;;;;;72.00;20.40;;;;;;;5.33;94.26;99918.19;4210293;82;28537;-80
2022/12/03 04:07:02;;;;;;;69.10;22.22;;;;;;;5.01;95.07;99910.19;4224702;82;28539;-80
2022/12/03 04:13:04;;;;;;;72.00;21.77;;;;;;;5.09;95.32;99909.31;4249865;82;28541;-80
2022/12/03 04:19:05;;;;;;;66.50;21.80;;;;;;;4.70;97.52;99918.44;4229075;82;28574;-80
2022/12/03 04:37:49;;;;;;;67.37;20.90;;;;;;;5.24;93.30;99928.89;4237397;82;28600;-77
2022/12/03 04:50:10;;;;;;;78.30;22.48;;;;;;;5.81;91.32;99927.39;4250703;82;28520;-80
2022/12/03 04:56:12;;;;;;;69.90;20.20;;;;;;;6.25;89.09;99921.41;4268660;82;28540;-81
2022/12/03 05:02:13;;;;;;;63.92;20.52;;;;;;;6.28;87.05;99918.38;4203530;82;28502;-80
2022/12/03 05:08:15;;;;;;;61.70;19.45;;;;;;;6.03;87.46;99919.09;4232744;82;28569;-79
2022/12/03 05:14:17;;;;;;;63.48;21.07;;;;;;;6.08;87.27;99918.03;4254649;82;28505;-79
2022/12/03 05:26:38;;;;;;;58.65;19.32;;;;;;;5.70;87.51;99922.79;4253209;82;28559;-78
2022/12/03 05:32:39;;;;;;;68.00;21.82;;;;;;;5.94;86.43;99926.31;4301326;82;28477;-78
2022/12/03 05:38:42;;;;;;;62.73;20.27;;;;;;;5.64;89.50;99912.84;4264646;82;28561;-77
2022/12/03 05:44:43;;;;;;;54.55;18.82;;;;;;;5.82;87.45;99905.03;4265975;82;28547;-77
2022/12/03 05:50:45;;;;;;;55.73;18.52;;;;;;;5.84;86.72;99922.53;4210615;82;28520;-78
2022/12/03 05:56:50;;;;;;;58.53;18.93;;;;;;;5.49;88.60;99921.27;4204532;82;28607;-79
2022/12/03 06:02:57;;;;;;;58.78;20.57;;;;;;;5.39;88.87;99915.65;4230180;82;28507;-79
2022/12/03 06:08:55;;;;;;;56.58;19.37;;;;;;;4.72;92.00;99917.76;4222002;82;28634;-78
2022/12/03 06:14:58;;;;;;;62.13;20.32;;;;;;;5.23;91.84;99926.42;4252265;82;28523;-78
2022/12/03 06:20:59;;;;;;;55.85;19.55;;;;;;;5.39;90.56;99919.64;4228381;82;28486;-77
2022/12/03 06:27:01;;;;;;;55.95;18.32;;;;;;;5.12;91.99;99927.63;4290751;82;28508;-77
2022/12/03 06:33:02;;;;;;;63.78;19.87;;;;;;;5.84;86.56;99927.87;4307856;82;28528;-79
2022/12/03 06:39:03;;;;;;;58.63;19.90;;;;;;;5.70;87.12;99928.65;4230516;82;28482;-78
2022/12/03 06:45:06;;;;;;;44.23;15.30;;;;;;;5.59;87.84;99921.87;4245871;82;28500;-78
2022/12/03 06:51:07;;;;;;;58.40;19.95;;;;;;;5.12;87.01;99939.61;4258033;81;28549;-77
2022/12/03 06:57:11;;;;;;;55.60;19.12;;;;;;;5.08;89.71;99941.80;4270702;82;28638;-83
2022/12/03 07:03:12;;;;;;;58.63;19.05;;;;;;;5.39;87.78;99944.98;4257215;82;28586;-83
2022/12/03 07:09:15;;;;;;;69.95;22.52;;;;;;;5.62;87.25;99930.84;4253689;82;28499;-86
2022/12/03 07:15:17;;;;;;;63.87;20.57;;;;;;;6.17;84.52;99944.67;4253709;82;28538;-82
2022/12/03 07:21:18;;;;;;;60.92;19.00;;;;;;;6.07;84.15;99947.59;4251885;84;28491;-82
2022/12/03 07:27:22;;;;;;;69.82;22.25;;;;;;;;;;4237083;82;28518;-82
2022/12/03 07:33:23;;;;;;;63.33;20.10;;;;;;;6.46;81.63;99946.59;4265685;82;28479;-81
2022/12/03 07:39:24;;;;;;;57.30;19.02;;;;;;;6.60;80.47;99952.95;4264433;82;28528;-80
2022/12/03 07:45:31;;;;;;;60.48;20.08;;;;;;;5.97;80.81;99962.47;4260276;82;28510;-81
2022/12/03 07:51:33;;;;;;;63.70;21.30;;;;;;;5.93;82.98;99953.17;4278407;82;28533;-81
2022/12/03 07:57:34;;;;;;;58.92;21.00;;;;;;;5.86;84.47;99956.54;4256628;82;28572;-82
2022/12/03 08:03:41;;;;;;;64.30;21.52;;;;;;;6.01;83.93;99946.45;4254001;82;28543;-80
2022/12/03 08:09:43;;;;;;;59.42;20.60;;;;;;;6.41;81.64;99951.14;4277845;82;28527;-81
2022/12/03 08:15:46;;;;;;;56.75;20.23;;;;;;;6.36;81.64;99942.83;4258960;82;28511;-81
2022/12/03 08:21:49;;;;;;;62.70;21.77;;;;;;;6.23;83.29;99933.28;4262406;81;28532;-81
2022/12/03 08:28:00;;;;;;;66.50;22.82;;;;;;;6.40;82.43;99940.14;4205178;84;28611;-80
2022/12/03 08:34:26;;;;;;;66.72;23.02;;;;;;;6.22;84.50;99936.96;4253305;84;28499;-80
2022/12/03 08:40:39;;;;;;;66.42;22.13;;;;;;;6.67;81.38;99940.53;4212480;84;28498;-80
2022/12/03 08:46:40;;;;;;;73.05;22.70;;;;;;;7.16;78.00;99949.01;4234975;82;28493;-81
2022/12/03 08:52:42;;;;;;;61.08;20.48;;;;;;;7.33;75.53;99939.42;4253054;84;28506;-81
2022/12/03 08:58:45;;;;;;;68.67;22.52;;;;;;;5.97;78.94;99944.62;4253583;82;28481;-81
2022/12/03 09:04:47;;;;;;;71.50;23.55;;;;;;;6.41;80.56;99942.29;4254563;82;28600;-80
2022/12/03 09:10:48;;;;;;;66.30;22.80;;;;;;;6.49;80.23;99953.39;4267261;82;28483;-79
2022/12/03 09:16:54;;;;;;;66.60;21.95;;;;;;;6.14;81.92;99951.19;4252427;83;28559;-80
2022/12/03 09:22:54;;;;;;;70.78;22.85;;;;;;;6.11;81.48;99952.41;4282607;82;28521;-79
2022/12/03 09:28:59;;;;;;;77.37;23.83;;;;;;;5.84;83.60;99953.22;4254153;82;28530;-82
2022/12/03 09:35:04;;;;;;;75.92;24.40;;;;;;;6.56;81.45;99950.33;4254829;82;28499;-83
2022/12/03 09:41:08;;;;;;;74.62;25.57;;;;;;;6.59;80.41;99947.80;4220804;84;28504;-82
2022/12/03 09:47:10;;;;;;;70.83;23.62;;;;;;;6.07;83.40;99950.27;4251674;82;28499;-82
2022/12/03 09:53:20;;;;;;;72.80;24.23;;;;;;;6.46;81.35;99949.77;4243728;82;28543;-82
2022/12/03 09:59:26;;;;;;;71.47;23.12;;;;;;;6.63;79.16;99949.94;4253259;82;28564;-78
2022/12/03 10:05:28;;;;;;;63.23;23.10;;;;;;;6.77;77.47;99943.44;4252272;82;28511;-79
2022/12/03 10:11:30;;;;;;;81.12;26.42;;;;;;;6.78;77.28;99944.60;4269507;82;28532;-78
2022/12/03 10:17:32;;;;;;;74.40;23.90;;;;;;;6.41;79.38;99935.13;4251260;84;28523;-80
2022/12/03 10:23:33;;;;;;;73.92;24.82;;;;;;;6.57;79.51;99931.13;4266522;82;28543;-80
2022/12/03 10:29:35;;;;;;;72.67;26.52;;;;;;;7.39;75.40;99917.28;4267402;82;28535;-80
2022/12/03 10:35:40;;;;;;;77.05;24.87;;;;;;;7.66;72.24;99922.41;4283495;82;28570;-82
2022/12/03 10:41:43;;;;;;;74.55;24.87;;;;;;;7.78;72.28;99915.20;4267455;82;28570;-83
2022/12/03 10:48:13;;;;;;;80.53;27.82;;;;;;;7.19;74.56;99925.89;4233376;82;28567;-82
2022/12/03 10:54:22;;;;;;;73.62;26.00;;;;;;;6.93;76.78;99923.22;4243098;82;28528;-84
2022/12/03 11:00:25;;;;;;;84.62;26.33;;;;;;;6.57;78.35;99920.45;4259883;82;28544;-84
2022/12/03 11:06:30;;;;;;;83.82;27.32;;;;;;;6.28;79.75;99913.03;4250156;81;28496;-84
2022/12/03 11:12:33;;;;;;;84.28;28.07;;;;;;;7.13;78.27;99917.27;4188179;84;28530;-83
2022/12/03 11:18:43;;;;;;;71.28;24.87;;;;;;;7.63;74.69;99912.09;4171495;84;28555;-83
2022/12/03 11:24:44;;;;;;;76.95;27.37;;;;;;;7.50;74.58;99912.77;4168285;85;28534;-83
2022/12/03 11:30:55;;;;;;;66.70;24.07;;;;;;;6.98;75.74;99907.43;4183627;84;28534;-86
2022/12/03 11:37:15;;;;;;;77.17;26.75;;;;;;;6.96;77.43;99914.81;4170467;84;28504;-86
2022/12/03 11:43:22;;;;;;;74.92;24.45;;;;;;;7.43;76.25;99893.13;4171384;84;28509;-87
2022/12/03 11:49:40;;;;;;;81.75;25.70;;;;;;;7.27;74.87;99900.06;4174938;84;28583;-86
2022/12/03 11:55:47;;;;;;;81.28;25.20;;;;;;;7.11;76.73;99892.07;4174051;84;28480;-85
2022/12/03 12:01:48;;;;;;;73.30;24.25;;;;;;;7.16;77.51;99902.20;4177431;84;28488;-79
2022/12/03 12:07:51;;;;;;;80.45;25.05;;;;;;;6.76;81.64;99889.14;4189702;82;28482;-83
2022/12/03 12:14:01;;;;;;;80.85;24.95;;;;;;;7.20;79.49;99892.78;4246954;82;28575;-81
2022/12/03 12:20:26;;;;;;;72.55;23.52;;;;;;;7.25;78.26;99881.02;4264175;82;28504;-82
2022/12/03 12:26:27;;;;;;;70.47;23.65;;;;;;;6.89;80.23;99888.49;4285723;82;28472;-76
2022/12/03 12:32:33;;;;;;;76.20;23.52;;;;;;;6.80;81.46;99888.27;4283702;82;28499;-82
2022/12/03 12:38:34;;;;;;;78.65;23.45;;;;;;;7.28;78.99;99891.02;4287256;82;28546;-79
2022/12/03 12:44:35;;;;;;;87.78;25.12;;;;;;;7.51;77.00;99883.65;4265986;82;28461;-81
2022/12/03 12:50:41;;;;;;;83.20;25.12;;;;;;;7.07;80.66;99881.41;4255408;82;28489;-77
2022/12/03 12:56:48;;;;;;;67.42;21.90;;;;;;;7.45;80.21;99876.89;4245729;82;28542;-77
2022/12/03 13:03:01;;;;;;;71.42;23.10;;;;;;;7.14;78.76;99881.52;4298792;82;28553;-77
2022/12/03 13:09:02;;;;;;;72.92;21.80;;;;;;;6.55;83.28;99881.88;4206354;82;28539;-77
2022/12/03 13:15:12;;;;;;;86.02;24.95;;;;;;;6.74;83.99;99875.66;4200674;84;28936;-75
2022/12/03 13:21:44;;;;;;;80.75;25.55;;;;;;;6.43;87.15;99888.69;4185834;84;28603;-81
2022/12/03 13:27:45;;;;;;;81.67;22.95;;;;;;;6.45;88.36;99876.78;4182634;84;28525;-83
2022/12/03 13:33:51;;;;;;;84.97;24.02;;;;;;;6.01;90.83;99873.03;4175061;82;28491;-80
2022/12/03 13:39:59;;;;;;;79.30;23.47;;;;;;;5.70;92.58;99878.77;4187974;84;28516;-77
2022/12/03 13:46:00;;;;;;;82.80;24.05;;;;;;;5.84;92.11;99891.84;4178328;84;28550;-76
2022/12/03 13:52:14;;;;;;;88.40;25.65;;;;;;;6.52;89.89;99886.27;4165228;84;28535;-83
2022/12/03 13:58:19;;;;;;;77.97;22.77;;;;;;;5.85;93.00;99892.16;4166111;85;28553;-81
2022/12/03 14:04:23;;;;;;;80.13;25.17;;;;;;;5.84;94.48;99903.03;4196685;84;28567;-83
2022/12/03 14:10:24;;;;;;;88.95;24.77;;;;;;;5.83;94.24;99912.02;4183817;82;28539;-84
2022/12/03 14:16:25;;;;;;;85.25;23.75;;;;;;;6.35;93.23;99905.12;4168105;83;28531;-82
2022/12/03 14:22:27;;;;;;;88.15;25.48;;;;;;;6.24;92.12;99905.56;4188614;84;28554;-82
2022/12/03 14:28:29;;;;;;;82.27;24.72;;;;;;;5.88;93.90;99894.14;4146323;84;28508;-83
2022/12/03 14:34:30;;;;;;;86.53;25.48;;;;;;;5.97;94.71;99894.41;4171339;84;28516;-83
2022/12/03 14:40:32;;;;;;;77.47;24.23;;;;;;;6.14;93.87;99894.63;4162177;84;28507;-87
2022/12/03 14:46:33;;;;;;;78.95;22.80;;;;;;;6.13;92.76;99892.97;4152281;84;28886;-85
2022/12/03 14:52:35;;;;;;;68.12;20.65;;;;;;;6.07;92.25;99890.20;4157506;84;28492;-80
2022/12/03 14:58:37;;;;;;;89.92;26.65;;;;;;;5.89;92.69;99898.50;4166419;84;28520;-76
2022/12/03 15:04:40;;;;;;;82.57;24.82;;;;;;;6.21;93.21;99901.92;4163008;84;28516;-77
2022/12/03 15:10:41;;;;;;;71.57;21.97;;;;;;;6.68;89.90;99906.62;4183400;83;28717;-78
2022/12/03 15:16:42;;;;;;;81.80;26.17;;;;;;;6.00;90.40;99913.56;4192505;84;28511;-78
2022/12/03 15:22:44;;;;;;;82.33;25.57;;;;;;;5.81;94.98;99919.38;4174245;84;28571;-77
2022/12/03 15:28:45;;;;;;;75.22;24.05;;;;;;;6.27;92.97;99917.20;4176566;84;28878;-82
2022/12/03 15:34:49;;;;;;;79.42;24.40;;;;;;;6.57;90.69;99921.26;4177788;84;28454;-77
2022/12/03 15:40:50;;;;;;;79.40;25.40;;;;;;;6.13;93.40;99914.33;4168081;84;28527;-82
2022/12/03 15:46:51;;;;;;;77.60;24.87;;;;;;;6.03;94.98;99925.77;4154510;84;28532;-80
2022/12/03 15:52:52;;;;;;;78.25;25.72;;;;;;;5.90;96.33;99921.51;4160735;84;28524;-78
2022/12/03 15:58:54;;;;;;;69.77;23.52;;;;;;;6.18;96.80;99923.14;4156652;84;28554;-80
2022/12/03 16:04:59;;;;;;;76.97;24.27;;;;;;;5.92;95.61;99926.16;4165246;84;28552;-82
2022/12/03 16:10:59;;;;;;;79.45;25.97;;;;;;;5.72;99.63;99925.30;4124228;84;28515;-83
2022/12/03 16:17:01;;;;;;;78.47;25.90;;;;;;;5.84;97.69;99921.72;4143800;84;28608;-85
2022/12/03 16:23:04;;;;;;;70.72;24.20;;;;;;;5.26;100.00;99928.23;4173649;84;29241;-86
2022/12/03 16:29:05;;;;;;;79.17;24.92;;;;;;;5.95;98.23;99930.64;4204364;83;28464;-84
2022/12/03 16:35:07;;;;;;;80.28;25.85;;;;;;;6.42;95.43;99919.91;4147539;84;28484;-86
2022/12/03 16:41:09;;;;;;;77.53;24.63;;;;;;;6.70;93.76;99919.30;4188652;84;28524;-87
2022/12/03 16:47:10;;;;;;;74.35;24.00;;;;;;;6.89;92.28;99919.23;4181565;83;28467;-91
2022/12/03 16:53:13;;;;;;;71.80;23.73;;;;;;;6.40;93.86;99918.77;4163202;84;28555;-83
2022/12/03 16:59:15;;;;;;;64.07;21.62;;;;;;;6.66;91.95;99926.00;4166539;84;28506;-83
2022/12/03 17:05:17;;;;;;;79.30;25.72;;;;;;;6.62;91.01;99928.73;4166816;84;28531;-85
2022/12/03 17:11:19;;;;;;;71.53;23.15;;;;;;;6.84;91.61;99919.79;4168233;82;28494;-83
2022/12/03 17:17:20;;;;;;;69.67;23.15;;;;;;;6.85;91.09;99923.30;4179506;83;28519;-87
2022/12/03 17:23:22;;;;;;;76.50;25.52;;;;;;;6.20;96.00;99913.62;4167301;84;28508;-83
2022/12/03 17:29:23;;;;;;;85.53;27.80;;;;;;;5.98;98.20;99907.58;4183054;84;28534;-83
2022/12/03 17:35:25;;;;;;;92.75;29.18;;;;;;;6.59;95.46;99908.54;4201954;84;28539;-81
2022/12/03 17:41:26;;;;;;;85.30;26.33;;;;;;;7.01;92.81;99900.05;4167643;84;28541;-83
2022/12/03 17:47:28;;;;;;;103.95;31.40;;;;;;;6.23;95.67;99908.72;4169523;84;28531;-82
2022/12/03 17:53:29;;;;;;;113.97;32.83;;;;;;;6.20;99.30;99904.27;4179583;83;28487;-81
2022/12/03 17:59:30;;;;;;;104.78;30.88;;;;;;;6.69;97.50;99902.41;4174637;84;28647;-80
2022/12/03 18:05:32;;;;;;;94.20;29.60;;;;;;;6.24;99.21;99909.05;4173112;83;28501;-81
2022/12/03 18:11:33;;;;;;;100.10;30.88;;;;;;;5.81;100.00;99892.70;4193916;84;28539;-80
2022/12/03 18:17:37;;;;;;;101.10;30.00;;;;;;;5.80;100.00;99887.88;4194732;84;28500;-82
2022/12/03 18:23:39;;;;;;;104.25;30.52;;;;;;;6.20;100.00;99880.24;4196983;82;28565;-81
2022/12/03 18:29:40;;;;;;;91.45;29.72;;;;;;;6.32;100.00;99876.60;4186991;83;28499;-80
2022/12/03 18:35:43;;;;;;;84.05;27.77;;;;;;;6.31;99.28;99886.96;4183476;84;28520;-80
2022/12/03 18:41:44;;;;;;;89.72;29.23;;;;;;;6.30;98.94;99874.62;4165992;84;28631;-76
2022/12/03 18:47:45;;;;;;;81.57;27.30;;;;;;;6.29;99.44;99876.45;4185024;82;28531;-78
2022/12/03 18:53:48;;;;;;;81.75;27.60;;;;;;;5.72;100.00;99865.26;4169454;84;28564;-78
2022/12/03 18:59:50;;;;;;;59.42;23.85;;;;;;;6.07;100.00;99874.18;4164188;84;28563;-78
2022/12/03 19:05:51;;;;;;;81.65;26.75;;;;;;;5.48;100.00;99869.77;4163915;84;28891;-79
2022/12/03 19:11:53;;;;;;;81.82;27.42;;;;;;;6.06;100.00;99851.98;4228906;82;28480;-80
2022/12/03 19:17:56;;;;;;;73.47;25.85;;;;;;;6.14;100.00;99857.25;4266017;82;28526;-82
2022/12/03 19:23:57;;;;;;;71.35;24.92;;;;;;;6.24;100.00;99864.17;4270942;82;28591;-87
2022/12/03 19:29:59;;;;;;;66.47;24.52;;;;;;;6.10;99.83;99855.12;4266200;82;28580;-86
2022/12/03 19:36:03;;;;;;;67.05;25.27;;;;;;;6.53;97.72;99851.84;4260016;83;28578;-84
2022/12/03 19:42:04;;;;;;;68.57;25.37;;;;;;;5.95;100.00;99851.05;4259102;83;28501;-84
2022/12/03 19:48:06;;;;;;;70.47;25.70;;;;;;;5.68;100.00;99851.44;4263294;83;28503;-81
2022/12/03 19:54:11;;;;;;;70.10;24.43;;;;;;;6.37;98.78;99864.87;4270444;82;28436;-78
2022/12/03 20:00:14;;;;;;;68.02;24.27;;;;;;;6.23;98.76;99851.83;4270587;82;28499;-79
2022/12/03 20:06:19;;;;;;;70.45;25.20;;;;;;;5.59;100.00;99852.50;4247723;81;28551;-77
2022/12/03 20:12:20;;;;;;;69.82;24.90;;;;;;;5.63;100.00;99847.65;4261646;82;28547;-80
2022/12/03 20:18:21;;;;;;;70.52;25.80;;;;;;;5.93;100.00;99842.41;4260336;82;28525;-83
2022/12/03 20:24:25;;;;;;;68.87;26.62;;;;;;;5.66;100.00;99848.61;4284447;81;28544;-83
2022/12/03 20:30:26;;;;;;;70.47;25.80;;;;;;;5.70;100.00;99846.75;4269118;82;28621;-80
2022/12/03 20:36:33;;;;;;;63.87;24.63;;;;;;;5.59;100.00;99861.84;4265291;82;28534;-80
2022/12/03 20:42:34;;;;;;;71.92;26.00;;;;;;;5.73;100.00;99862.91;4264609;82;28519;-80
2022/12/03 20:48:36;;;;;;;57.23;23.73;;;;;;;5.76;100.00;99857.73;4257640;82;28561;-80
2022/12/03 20:54:37;;;;;;;63.20;24.87;;;;;;;5.36;100.00;99860.50;4256100;82;28494;-79
2022/12/03 21:00:40;;;;;;;59.27;22.48;;;;;;;5.69;100.00;99854.95;4264002;82;28504;-80
2022/12/03 21:06:41;;;;;;;59.90;23.62;;;;;;;5.43;100.00;99855.63;4270080;82;28555;-80
2022/12/03 21:12:43;;;;;;;64.10;24.37;;;;;;;5.90;100.00;99853.45;4256595;82;28533;-80
2022/12/03 21:18:46;;;;;;;60.23;23.32;;;;;;;5.44;100.00;99846.63;4272364;82;28597;-79
2022/12/03 21:24:47;;;;;;;55.43;22.00;;;;;;;5.28;100.00;99846.23;4278280;81;28608;-80
2022/12/03 21:30:49;;;;;;;61.83;24.95;;;;;;;5.28;100.00;99840.89;4286706;81;28519;-80
2022/12/03 21:36:50;;;;;;;62.23;22.73;;;;;;;5.44;100.00;99835.95;4283948;82;28524;-75
2022/12/03 21:42:52;;;;;;;54.00;21.93;;;;;;;5.55;100.00;99838.69;4274765;82;28499;-76
2022/12/03 21:48:54;;;;;;;53.33;21.00;;;;;;;5.15;100.00;99825.96;4247106;82;28529;-75
2022/12/03 21:54:55;;;;;;;65.78;25.00;;;;;;;5.68;100.00;99835.95;4258595;82;28491;-75
2022/12/03 22:01:02;;;;;;;62.55;24.37;;;;;;;5.67;100.00;99831.59;4255333;82;28555;-77
2022/12/03 22:07:05;;;;;;;64.45;24.30;;;;;;;5.50;100.00;99823.73;4271965;82;28471;-76
2022/12/03 22:13:07;;;;;;;75.12;29.80;;;;;;;5.45;100.00;99826.09;4246392;81;28551;-78
2022/12/03 22:19:08;;;;;;;75.65;29.45;;;;;;;5.27;100.00;99832.58;4298664;82;28530;-77
2022/12/03 22:25:12;;;;;;;75.00;28.90;;;;;;;5.81;100.00;99840.17;4247249;82;28520;-76
2022/12/03 22:31:17;;;;;;;69.80;27.75;;;;;;;5.44;100.00;99842.63;4255576;82;28503;-76
2022/12/03 22:37:21;;;;;;;76.60;29.32;;;;;;;4.99;100.00;99843.72;4244358;82;28579;-77
2022/12/03 22:43:25;;;;;;;73.78;29.40;;;;;;;5.54;100.00;99840.22;4253823;82;28535;-76
2022/12/03 22:49:26;;;;;;;83.67;33.80;;;;;;;4.92;100.00;99867.25;4263024;82;28506;-76
2022/12/03 22:55:27;;;;;;;75.03;30.48;;;;;;;5.53;100.00;99855.38;4236289;82;28930;-76
2022/12/03 23:01:34;;;;;;;81.00;32.50;;;;;;;5.18;100.00;99855.45;4258980;82;28544;-76
2022/12/03 23:07:36;;;;;;;67.70;28.20;;;;;;;5.18;100.00;99852.78;4271521;81;28533;-76
2022/12/03 23:13:37;;;;;;;70.85;28.90;;;;;;;5.41;100.00;99840.80;4254454;81;28543;-77
2022/12/03 23:19:39;;;;;;;69.45;28.42;;;;;;;5.08;100.00;99835.17;4276467;82;28529;-77
2022/12/03 23:25:40;;;;;;;70.17;28.42;;;;;;;5.23;100.00;99835.25;4272651;82;28471;-75
2022/12/03 23:31:41;;;;;;;70.50;27.67;;;;;;;4.97;100.00;99834.23;4275597;82;28565;-76
2022/12/03 23:37:43;;;;;;;66.22;25.77;;;;;;;5.02;100.00;99830.56;4279559;82;28461;-76
2022/12/03 23:43:46;;;;;;;65.17;26.10;;;;;;;5.24;100.00;99830.76;4275378;82;28511;-77
2022/12/03 23:49:47;;;;;;;55.43;22.85;;;;;;;5.40;100.00;99828.48;4266465;81;28610;-78
2022/12/03 23:55:48;;;;;;;56.18;22.37;;;;;;;5.53;100.00;99827.38;4250713;82;28484;-77
